Time;durP1;ratioP1;P1;durP2;ratioP2;P2;SDS_P1;SDS_P2;PMS_P1;PMS_P2;Temp;Humidity;BMP_temperature;BMP_pressure;BME280_temperature;BME280_humidity;BME280_pressure;Samples;Min_cycle;Max_cycle;Signal;HPM_P1;HPM_P2
2022/04/06 00:02:23;;;;;;;;;;;21.70;49.60;;;;;;5080167;28;937;-45
2022/04/06 00:04:52;;;;;;;;;;;21.70;49.60;;;;;;5080629;28;1006;-44
2022/04/06 00:07:19;;;;;;;;;;;21.70;49.60;;;;;;5079904;28;1018;-45
2022/04/06 00:09:46;;;;;;;;;;;21.70;49.60;;;;;;5079366;28;1774;-44
2022/04/06 00:12:13;;;;;;;;;;;21.70;49.60;;;;;;5079407;28;1977;-45
2022/04/06 00:14:39;;;;;;;;;;;21.70;49.70;;;;;;5079472;28;995;-44
2022/04/06 00:17:06;;;;;;;;;;;21.70;49.70;;;;;;5079032;28;1013;-43
2022/04/06 00:19:33;;;;;;;;;;;21.70;49.70;;;;;;5078660;28;1027;-40
2022/04/06 00:22:01;;;;;;;;;;;21.70;49.70;;;;;;5079723;28;1039;-45
2022/04/06 00:24:28;;;;;;;;;;;21.70;49.60;;;;;;5078508;28;945;-45
2022/04/06 00:26:55;;;;;;;;;;;21.70;49.60;;;;;;5079008;28;1009;-44
2022/04/06 00:29:21;;;;;;;;;;;21.70;49.60;;;;;;5079282;28;1015;-45
2022/04/06 00:31:48;;;;;;;;;;;21.70;49.60;;;;;;5079513;28;1898;-45
2022/04/06 00:34:15;;;;;;;;;;;21.60;49.60;;;;;;5078890;28;893;-43
2022/04/06 00:36:41;;;;;;;;;;;21.70;49.60;;;;;;5078624;28;993;-44
2022/04/06 00:39:09;;;;;;;;;;;21.60;49.60;;;;;;5078923;28;1014;-43
2022/04/06 00:41:38;;;;;;;;;;;21.70;49.60;;;;;;5079650;28;1020;-45
2022/04/06 00:44:12;;;;;;;;;;;21.60;49.60;;;;;;5079463;28;1182;-46
2022/04/06 00:46:40;;;;;;;;;;;21.60;49.60;;;;;;5079073;28;948;-44
2022/04/06 00:49:11;;;;;;;;;;;21.60;49.60;;;;;;5078902;28;1011;-45
2022/04/06 00:51:41;;;;;;;;;;;21.60;49.60;;;;;;5079281;28;1897;-44
2022/04/06 00:54:08;;;;;;;;;;;21.60;49.60;;;;;;5078927;28;996;-44
2022/04/06 00:56:36;;;;;;;;;;;21.60;49.60;;;;;;5079286;28;917;-44
2022/04/06 00:59:03;;;;;;;;;;;21.60;49.60;;;;;;5079686;28;914;-45
2022/04/06 01:01:30;;;;;;;;;;;21.60;49.60;;;;;;5078814;28;1112;-43
2022/04/06 01:03:56;;;;;;;;;;;21.60;49.60;;;;;;5078542;28;988;-43
2022/04/06 01:06:23;;;;;;;;;;;21.60;49.60;;;;;;5078304;28;1148;-44
2022/04/06 01:08:51;;;;;;;;;;;21.60;49.60;;;;;;5078773;28;928;-45
2022/04/06 01:11:18;;;;;;;;;;;21.60;49.60;;;;;;5078801;28;1984;-44
2022/04/06 01:13:47;;;;;;;;;;;21.60;49.60;;;;;;5078538;28;997;-44
2022/04/06 01:16:13;;;;;;;;;;;21.60;49.60;;;;;;5079781;28;881;-44
2022/04/06 01:18:41;;;;;;;;;;;21.60;49.60;;;;;;5079370;28;932;-43
2022/04/06 01:21:08;;;;;;;;;;;21.60;49.60;;;;;;5079185;28;1004;-45
2022/04/06 01:23:36;;;;;;;;;;;21.60;49.50;;;;;;5078469;28;962;-44
2022/04/06 01:26:03;;;;;;;;;;;21.60;49.60;;;;;;5078377;28;1044;-45
2022/04/06 01:28:30;;;;;;;;;;;21.60;49.60;;;;;;5079222;28;940;-45
2022/04/06 01:30:57;;;;;;;;;;;21.50;49.50;;;;;;5078960;28;1011;-43
2022/04/06 01:33:24;;;;;;;;;;;21.60;49.50;;;;;;5078487;28;1961;-44
2022/04/06 01:35:51;;;;;;;;;;;21.60;49.60;;;;;;5077727;28;1007;-42
2022/04/06 01:38:17;;;;;;;;;;;21.60;49.60;;;;;;5077614;28;974;-45
2022/04/06 01:40:46;;;;;;;;;;;21.50;49.50;;;;;;5078573;28;1111;-44
2022/04/06 01:43:13;;;;;;;;;;;21.50;49.50;;;;;;5078015;28;1100;-44
2022/04/06 01:45:40;;;;;;;;;;;21.60;49.50;;;;;;5077976;28;893;-43
2022/04/06 01:48:06;;;;;;;;;;;21.60;49.50;;;;;;5078310;28;932;-42
2022/04/06 01:53:17;;;;;;;;;;;21.60;49.60;;;;;;5077825;28;1909;-45
2022/04/06 01:55:44;;;;;;;;;;;21.60;49.50;;;;;;5077926;28;1004;-45
2022/04/06 01:58:12;;;;;;;;;;;21.60;49.50;;;;;;5078139;28;1001;-47
2022/04/06 02:00:40;;;;;;;;;;;21.50;49.50;;;;;;5076832;28;1002;-46
2022/04/06 02:03:07;;;;;;;;;;;21.60;49.50;;;;;;5077812;28;977;-45
2022/04/06 02:05:34;;;;;;;;;;;21.60;49.40;;;;;;5078421;28;1016;-44
2022/04/06 02:08:01;;;;;;;;;;;21.60;49.40;;;;;;5077751;28;1032;-45
2022/04/06 02:10:28;;;;;;;;;;;21.60;49.40;;;;;;5077190;28;993;-44
2022/04/06 02:12:57;;;;;;;;;;;21.60;49.40;;;;;;5077427;28;1981;-44
2022/04/06 02:15:27;;;;;;;;;;;21.60;49.40;;;;;;5077792;28;937;-42
2022/04/06 02:17:54;;;;;;;;;;;21.50;49.30;;;;;;5077624;28;1787;-44
2022/04/06 02:20:21;;;;;;;;;;;21.60;49.40;;;;;;5077230;28;996;-45
2022/04/06 02:22:48;;;;;;;;;;;21.60;49.40;;;;;;5077891;28;984;-46
2022/04/06 02:25:15;;;;;;;;;;;21.60;49.30;;;;;;5077584;28;993;-43
2022/04/06 02:27:45;;;;;;;;;;;21.50;49.40;;;;;;5077813;28;948;-43
2022/04/06 02:33:37;;;;;;;;;;;21.60;49.60;;;;;;5077399;28;1917;-46
2022/04/06 02:36:04;;;;;;;;;;;21.50;49.40;;;;;;5076767;28;984;-42
2022/04/06 02:38:31;;;;;;;;;;;21.50;49.50;;;;;;5077211;28;905;-45
2022/04/06 02:40:57;;;;;;;;;;;21.50;49.50;;;;;;5077318;28;996;-44
2022/04/06 02:43:25;;;;;;;;;;;21.50;49.30;;;;;;5077346;28;1040;-45
2022/04/06 02:45:51;;;;;;;;;;;21.50;49.40;;;;;;5078259;28;989;-44
2022/04/06 02:48:18;;;;;;;;;;;21.50;49.40;;;;;;5077676;28;970;-44
2022/04/06 02:50:46;;;;;;;;;;;21.50;49.40;;;;;;5077279;28;1011;-44
2022/04/06 02:53:13;;;;;;;;;;;21.50;49.30;;;;;;5078325;28;1922;-44
2022/04/06 02:55:40;;;;;;;;;;;21.50;49.30;;;;;;5077316;28;980;-43
2022/04/06 02:58:06;;;;;;;;;;;21.50;49.40;;;;;;5077883;28;936;-45
2022/04/06 03:00:33;;;;;;;;;;;21.50;49.50;;;;;;5077579;28;1004;-44
2022/04/06 03:03:00;;;;;;;;;;;21.50;49.30;;;;;;5077397;28;1024;-45
2022/04/06 03:05:26;;;;;;;;;;;21.50;49.30;;;;;;5077904;28;1008;-45
2022/04/06 03:07:55;;;;;;;;;;;21.50;49.40;;;;;;5077634;28;1027;-44
2022/04/06 03:10:21;;;;;;;;;;;21.40;49.40;;;;;;5077564;28;986;-46
2022/04/06 03:12:48;;;;;;;;;;;21.50;49.40;;;;;;5080289;28;1984;-45
2022/04/06 03:15:15;;;;;;;;;;;21.50;49.30;;;;;;5081600;28;940;-42
2022/04/06 03:17:42;;;;;;;;;;;21.50;49.30;;;;;;5081675;28;936;-42
2022/04/06 03:20:11;;;;;;;;;;;21.50;49.30;;;;;;5081747;28;920;-45
2022/04/06 03:22:38;;;;;;;;;;;21.50;49.30;;;;;;5081331;28;945;-44
2022/04/06 03:25:07;;;;;;;;;;;21.50;49.40;;;;;;5081485;28;984;-44
2022/04/06 03:27:33;;;;;;;;;;;21.50;49.30;;;;;;5081615;28;988;-45
2022/04/06 03:30:01;;;;;;;;;;;21.50;49.50;;;;;;5081855;28;1028;-45
2022/04/06 03:32:27;;;;;;;;;;;21.50;49.40;;;;;;5080843;28;1914;-42
2022/04/06 03:34:54;;;;;;;;;;;21.50;49.30;;;;;;5080671;28;921;-43
2022/04/06 03:37:21;;;;;;;;;;;21.60;49.30;;;;;;5080073;28;924;-45
2022/04/06 03:39:48;;;;;;;;;;;21.60;49.30;;;;;;5080088;28;945;-44
2022/04/06 03:42:16;;;;;;;;;;;21.70;49.10;;;;;;5080903;28;940;-44
2022/04/06 03:44:43;;;;;;;;;;;21.70;49.10;;;;;;5080876;28;1114;-44
2022/04/06 03:47:09;;;;;;;;;;;21.60;49.10;;;;;;5080349;28;1050;-43
2022/04/06 03:49:36;;;;;;;;;;;21.60;49.20;;;;;;5079666;28;973;-44
2022/04/06 03:52:03;;;;;;;;;;;21.60;49.20;;;;;;5080218;28;1016;-44
2022/04/06 03:54:30;;;;;;;;;;;21.50;49.30;;;;;;5079828;28;1902;-45
2022/04/06 03:56:56;;;;;;;;;;;21.60;49.20;;;;;;5080296;28;948;-44
2022/04/06 03:59:24;;;;;;;;;;;21.50;49.20;;;;;;5080071;28;987;-43
2022/04/06 04:01:51;;;;;;;;;;;21.50;49.20;;;;;;5079251;28;937;-45
2022/04/06 04:04:18;;;;;;;;;;;21.50;49.20;;;;;;5079470;28;998;-45
2022/04/06 04:06:45;;;;;;;;;;;21.50;49.20;;;;;;5079988;28;940;-45
2022/04/06 04:09:11;;;;;;;;;;;21.50;50.30;;;;;;5079485;28;1051;-44
2022/04/06 04:11:38;;;;;;;;;;;21.50;49.20;;;;;;5079683;28;949;-44
2022/04/06 04:14:05;;;;;;;;;;;21.50;49.30;;;;;;5080118;28;1906;-44
2022/04/06 04:16:33;;;;;;;;;;;21.50;49.20;;;;;;5079968;28;1041;-45
2022/04/06 04:19:00;;;;;;;;;;;21.40;49.20;;;;;;5080079;28;984;-45
2022/04/06 04:21:32;;;;;;;;;;;21.50;49.20;;;;;;5080109;28;984;-45
2022/04/06 04:23:59;;;;;;;;;;;21.50;49.20;;;;;;5079254;28;1871;-45
2022/04/06 04:26:26;;;;;;;;;;;21.50;49.10;;;;;;5079743;28;967;-44
2022/04/06 04:28:53;;;;;;;;;;;21.50;49.20;;;;;;5079875;28;1015;-42
2022/04/06 04:31:19;;;;;;;;;;;21.50;49.10;;;;;;5079454;28;1043;-43
2022/04/06 04:33:48;;;;;;;;;;;21.50;49.00;;;;;;5078896;28;1897;-45
2022/04/06 04:36:15;;;;;;;;;;;21.40;49.10;;;;;;5078684;28;983;-44
2022/04/06 04:38:42;;;;;;;;;;;21.50;49.20;;;;;;5078732;28;983;-44
2022/04/06 04:41:09;;;;;;;;;;;21.50;49.10;;;;;;5078651;28;1002;-44
2022/04/06 04:43:36;;;;;;;;;;;21.40;49.10;;;;;;5079131;28;1631;-47
2022/04/06 04:46:03;;;;;;;;;;;21.50;49.20;;;;;;5079168;28;1036;-45
2022/04/06 04:48:30;;;;;;;;;;;21.40;49.20;;;;;;5078393;28;1762;-42
2022/04/06 04:50:58;;;;;;;;;;;21.40;49.20;;;;;;5078352;28;992;-45
2022/04/06 04:53:25;;;;;;;;;;;21.40;49.20;;;;;;5078311;28;1901;-44
2022/04/06 04:55:52;;;;;;;;;;;21.50;49.10;;;;;;5077088;28;995;-46
2022/04/06 04:58:19;;;;;;;;;;;21.60;49.00;;;;;;5076919;28;1007;-47
2022/04/06 05:00:46;;;;;;;;;;;21.70;50.10;;;;;;5077473;28;921;-46
2022/04/06 05:03:13;;;;;;;;;;;21.70;48.90;;;;;;5077595;28;1788;-47
2022/04/06 05:05:39;;;;;;;;;;;21.70;48.90;;;;;;5077008;28;1024;-46
2022/04/06 05:08:08;;;;;;;;;;;21.70;48.90;;;;;;5074848;28;941;-47
2022/04/06 05:10:35;;;;;;;;;;;21.70;49.00;;;;;;5077258;28;1015;-46
2022/04/06 05:13:02;;;;;;;;;;;21.70;48.90;;;;;;5076813;28;1979;-44
2022/04/06 05:15:28;;;;;;;;;;;21.70;48.90;;;;;;5076769;28;909;-47
2022/04/06 05:17:55;;;;;;;;;;;21.70;49.00;;;;;;5076125;28;997;-46
2022/04/06 05:20:22;;;;;;;;;;;21.80;49.00;;;;;;5074651;28;1005;-46
2022/04/06 05:22:48;;;;;;;;;;;21.80;49.00;;;;;;5076676;28;925;-48
2022/04/06 05:25:17;;;;;;;;;;;21.80;48.90;;;;;;5074923;28;897;-46
2022/04/06 05:27:44;;;;;;;;;;;21.80;48.90;;;;;;5074366;28;952;-47
2022/04/06 05:30:12;;;;;;;;;;;21.80;49.00;;;;;;5075325;28;937;-46
2022/04/06 05:32:39;;;;;;;;;;;21.80;49.00;;;;;;5075237;28;1902;-44
2022/04/06 05:35:08;;;;;;;;;;;21.80;48.90;;;;;;5072929;28;1028;-44
2022/04/06 05:37:34;;;;;;;;;;;21.80;48.90;;;;;;5074667;28;1027;-44
2022/04/06 05:40:02;;;;;;;;;;;21.80;48.80;;;;;;5074651;28;1405;-44
2022/04/06 05:42:30;;;;;;;;;;;21.80;48.80;;;;;;5075461;28;1003;-44
2022/04/06 05:44:57;;;;;;;;;;;21.80;48.70;;;;;;5076376;28;1036;-44
2022/04/06 05:47:24;;;;;;;;;;;21.90;48.80;;;;;;5076333;28;1027;-46
2022/04/06 05:49:51;;;;;;;;;;;21.90;48.90;;;;;;5076065;28;975;-46
2022/04/06 05:52:18;;;;;;;;;;;21.80;48.90;;;;;;5075955;28;1854;-46
2022/04/06 05:54:44;;;;;;;;;;;21.80;49.00;;;;;;5075318;28;1987;-45
2022/04/06 05:57:11;;;;;;;;;;;21.80;49.00;;;;;;5075172;28;1020;-47
2022/04/06 05:59:40;;;;;;;;;;;21.90;48.90;;;;;;5076022;28;1011;-46
2022/04/06 06:02:06;;;;;;;;;;;21.80;49.00;;;;;;5074797;28;1016;-46
2022/04/06 06:04:34;;;;;;;;;;;21.80;49.00;;;;;;5075812;28;1006;-46
2022/04/06 06:07:01;;;;;;;;;;;21.80;49.00;;;;;;5075438;28;948;-45
2022/04/06 06:09:28;;;;;;;;;;;21.80;49.00;;;;;;5075689;28;962;-47
2022/04/06 06:11:55;;;;;;;;;;;21.80;49.00;;;;;;5075361;28;961;-47
2022/04/06 06:14:22;;;;;;;;;;;21.80;49.10;;;;;;5075017;28;1901;-50
2022/04/06 06:16:50;;;;;;;;;;;21.70;49.10;;;;;;5076552;28;999;-46
2022/04/06 06:19:17;;;;;;;;;;;21.70;49.00;;;;;;5075454;28;971;-49
2022/04/06 06:21:44;;;;;;;;;;;21.70;49.10;;;;;;5075780;28;940;-47
2022/04/06 06:24:11;;;;;;;;;;;21.70;49.00;;;;;;5075077;28;990;-46
2022/04/06 06:26:38;;;;;;;;;;;21.70;49.10;;;;;;5075696;28;862;-48
2022/04/06 06:29:05;;;;;;;;;;;21.90;49.10;;;;;;5075759;28;1024;-47
2022/04/06 06:31:32;;;;;;;;;;;21.90;48.80;;;;;;5074922;28;1007;-47
2022/04/06 06:34:00;;;;;;;;;;;21.90;48.70;;;;;;5074774;28;1984;-47
2022/04/06 06:36:28;;;;;;;;;;;21.90;48.60;;;;;;5075817;28;1094;-47
2022/04/06 06:38:55;;;;;;;;;;;21.90;48.80;;;;;;5074028;28;993;-49
2022/04/06 06:41:22;;;;;;;;;;;21.90;48.90;;;;;;5075185;28;994;-47
2022/04/06 06:43:50;;;;;;;;;;;21.90;49.10;;;;;;5073702;28;1044;-47
2022/04/06 06:46:17;;;;;;;;;;;21.90;49.10;;;;;;5074791;28;996;-46
2022/04/06 06:48:44;;;;;;;;;;;22.00;49.20;;;;;;5076782;28;988;-45
2022/04/06 06:51:12;;;;;;;;;;;22.00;49.00;;;;;;5076836;28;940;-40
2022/04/06 06:53:39;;;;;;;;;;;21.90;49.10;;;;;;5075813;28;1987;-39
2022/04/06 06:56:06;;;;;;;;;;;21.80;49.40;;;;;;5075001;28;1024;-40
2022/04/06 06:58:32;;;;;;;;;;;21.70;49.40;;;;;;5073364;28;1004;-39
2022/04/06 07:01:00;;;;;;;;;;;21.80;49.40;;;;;;5074000;28;866;-39
2022/04/06 07:03:26;;;;;;;;;;;21.70;49.50;;;;;;5073476;28;997;-42
2022/04/06 07:05:53;;;;;;;;;;;21.70;49.50;;;;;;5074231;28;988;-40
2022/04/06 07:08:21;;;;;;;;;;;21.70;50.60;;;;;;5074413;28;989;-40
2022/04/06 07:10:49;;;;;;;;;;;21.70;49.50;;;;;;5073829;28;976;-38
2022/04/06 07:13:16;;;;;;;;;;;21.70;49.30;;;;;;5072748;28;1906;-39
2022/04/06 07:15:44;;;;;;;;;;;21.70;49.30;;;;;;5074021;28;929;-40
2022/04/06 07:18:12;;;;;;;;;;;21.70;49.20;;;;;;5073755;28;1016;-40
2022/04/06 07:20:39;;;;;;;;;;;21.70;49.40;;;;;;5074100;28;953;-39
2022/04/06 07:23:07;;;;;;;;;;;21.70;49.50;;;;;;5075104;28;1730;-39
2022/04/06 07:25:36;;;;;;;;;;;21.60;49.40;;;;;;5074655;28;1005;-40
2022/04/06 07:28:03;;;;;;;;;;;21.80;49.30;;;;;;5073974;28;968;-40
2022/04/06 07:30:30;;;;;;;;;;;21.70;49.10;;;;;;5075031;28;1004;-41
2022/04/06 07:32:57;;;;;;;;;;;21.70;49.30;;;;;;5074798;28;932;-39
2022/04/06 07:35:25;;;;;;;;;;;21.70;49.40;;;;;;5074146;28;1988;-39
2022/04/06 07:37:52;;;;;;;;;;;21.70;49.30;;;;;;5071851;28;932;-39
2022/04/06 07:40:19;;;;;;;;;;;21.70;49.30;;;;;;5072605;28;963;-39
2022/04/06 07:42:49;;;;;;;;;;;21.70;49.30;;;;;;5074011;28;941;-41
2022/04/06 07:45:17;;;;;;;;;;;21.60;49.40;;;;;;5072671;28;944;-41
2022/04/06 07:47:44;;;;;;;;;;;21.60;49.40;;;;;;5075517;28;956;-41
2022/04/06 07:50:13;;;;;;;;;;;21.60;49.30;;;;;;5074127;28;1040;-40
2022/04/06 07:52:40;;;;;;;;;;;21.70;50.40;;;;;;5072872;28;908;-39
2022/04/06 07:55:07;;;;;;;;;;;21.60;49.30;;;;;;5072184;28;1911;-39
2022/04/06 07:57:34;;;;;;;;;;;21.60;49.30;;;;;;5072664;28;1000;-38
2022/04/06 08:00:08;;;;;;;;;;;21.60;49.40;;;;;;5077099;28;1008;-41
2022/04/06 08:02:34;;;;;;;;;;;21.60;49.40;;;;;;5077879;28;1032;-39
2022/04/06 08:05:01;;;;;;;;;;;21.60;49.30;;;;;;5079016;28;993;-40
2022/04/06 08:07:28;;;;;;;;;;;21.60;49.20;;;;;;5078844;28;925;-40
2022/04/06 08:09:55;;;;;;;;;;;21.60;49.30;;;;;;5078160;28;1051;-40
2022/04/06 08:12:21;;;;;;;;;;;21.60;49.20;;;;;;5077137;28;1007;-40
2022/04/06 08:14:50;;;;;;;;;;;21.60;49.30;;;;;;5076703;28;1997;-40
2022/04/06 08:17:18;;;;;;;;;;;21.60;49.20;;;;;;5078756;28;956;-40
2022/04/06 08:19:45;;;;;;;;;;;21.60;49.20;;;;;;5077746;28;933;-40
2022/04/06 08:22:12;;;;;;;;;;;21.60;49.10;;;;;;5076769;28;969;-41
2022/04/06 08:24:38;;;;;;;;;;;21.60;49.00;;;;;;5077191;28;921;-40
2022/04/06 08:27:05;;;;;;;;;;;21.60;49.00;;;;;;5078009;28;1016;-40
2022/04/06 08:29:32;;;;;;;;;;;21.60;49.00;;;;;;5077707;28;1011;-40
2022/04/06 08:31:58;;;;;;;;;;;21.60;49.10;;;;;;5078128;28;924;-39
2022/04/06 08:34:27;;;;;;;;;;;21.60;48.90;;;;;;5077552;28;1894;-40
2022/04/06 08:36:53;;;;;;;;;;;21.60;49.00;;;;;;5077871;28;1015;-40
2022/04/06 08:39:20;;;;;;;;;;;21.60;49.00;;;;;;5075753;28;889;-40
2022/04/06 08:41:47;;;;;;;;;;;21.60;49.00;;;;;;5076840;28;948;-40
2022/04/06 08:44:16;;;;;;;;;;;21.60;48.90;;;;;;5076126;28;1242;-40
2022/04/06 08:46:45;;;;;;;;;;;21.60;48.90;;;;;;5075825;28;973;-40
2022/04/06 08:49:12;;;;;;;;;;;21.60;48.90;;;;;;5078048;28;980;-40
2022/04/06 08:51:41;;;;;;;;;;;21.70;48.80;;;;;;5076540;28;1035;-40
2022/04/06 08:54:08;;;;;;;;;;;21.70;48.70;;;;;;5076236;28;1901;-40
2022/04/06 08:56:34;;;;;;;;;;;21.60;48.80;;;;;;5076992;28;956;-39
2022/04/06 08:59:01;;;;;;;;;;;21.60;48.90;;;;;;5075720;28;1036;-40
2022/04/06 09:01:31;;;;;;;;;;;21.60;48.90;;;;;;5076959;28;1006;-40
2022/04/06 09:03:58;;;;;;;;;;;21.60;48.90;;;;;;5076774;28;1044;-40
2022/04/06 09:06:29;;;;;;;;;;;21.60;49.00;;;;;;5077119;28;1000;-40
2022/04/06 09:08:57;;;;;;;;;;;21.60;48.90;;;;;;5077107;28;945;-41
2022/04/06 09:11:24;;;;;;;;;;;21.60;48.80;;;;;;5076499;28;1133;-40
2022/04/06 09:13:58;;;;;;;;;;;21.60;48.90;;;;;;5077370;28;1906;-38
2022/04/06 09:16:27;;;;;;;;;;;21.60;48.80;;;;;;5075406;28;1018;-38
2022/04/06 09:18:54;;;;;;;;;;;21.60;48.80;;;;;;5075728;28;1004;-38
2022/04/06 09:21:21;;;;;;;;;;;21.60;48.80;;;;;;5077506;28;1029;-38
2022/04/06 09:23:49;;;;;;;;;;;21.60;48.90;;;;;;5077246;28;858;-38
2022/04/06 09:26:19;;;;;;;;;;;21.60;48.90;;;;;;5076748;28;1021;-38
2022/04/06 09:28:47;;;;;;;;;;;21.60;48.90;;;;;;5076689;28;952;-38
2022/04/06 09:31:14;;;;;;;;;;;21.60;49.00;;;;;;5076228;28;925;-41
2022/04/06 09:33:41;;;;;;;;;;;21.60;49.00;;;;;;5075190;28;845;-40
2022/04/06 09:36:18;;;;;;;;;;;21.60;49.00;;;;;;5075374;28;2090;-39
2022/04/06 09:38:47;;;;;;;;;;;21.60;49.00;;;;;;5074828;28;932;-40
2022/04/06 09:41:15;;;;;;;;;;;21.60;48.90;;;;;;5077152;28;1797;-39
2022/04/06 09:43:44;;;;;;;;;;;21.60;49.00;;;;;;5076528;28;1063;-42
2022/04/06 09:49:03;;;;;;;;;;;21.60;49.10;;;;;;5075190;28;634;-40
2022/04/06 09:51:30;;;;;;;;;;;21.60;49.10;;;;;;5075014;28;1010;-40
2022/04/06 09:53:57;;;;;;;;;;;21.60;49.20;;;;;;5075303;28;1079;-40
2022/04/06 09:56:24;;;;;;;;;;;21.60;49.20;;;;;;5075711;28;1914;-40
2022/04/06 09:58:53;;;;;;;;;;;21.60;49.20;;;;;;5074924;28;922;-39
2022/04/06 10:01:19;;;;;;;;;;;21.60;49.10;;;;;;5075539;28;1012;-39
2022/04/06 10:03:49;;;;;;;;;;;21.60;49.10;;;;;;5074667;28;881;-40
2022/04/06 10:06:16;;;;;;;;;;;21.60;49.20;;;;;;5075074;28;979;-40
2022/04/06 10:08:44;;;;;;;;;;;21.60;49.10;;;;;;5076054;28;1019;-41
2022/04/06 10:11:12;;;;;;;;;;;21.60;49.20;;;;;;5075884;28;1034;-40
2022/04/06 10:13:39;;;;;;;;;;;21.60;49.10;;;;;;5075384;28;992;-40
2022/04/06 10:16:10;;;;;;;;;;;21.60;49.10;;;;;;5074996;28;1906;-40
2022/04/06 10:18:37;;;;;;;;;;;21.60;49.20;;;;;;5074269;28;996;-39
2022/04/06 10:21:06;;;;;;;;;;;21.60;49.10;;;;;;5074878;28;1829;-41
2022/04/06 10:23:40;;;;;;;;;;;21.60;49.20;;;;;;5073459;28;953;-40
2022/04/06 10:26:11;;;;;;;;;;;21.60;49.10;;;;;;5074479;28;1051;-40
2022/04/06 10:28:38;;;;;;;;;;;21.60;49.20;;;;;;5074169;28;1023;-39
2022/04/06 10:31:17;;;;;;;;;;;21.60;49.00;;;;;;5072603;28;881;-40
2022/04/06 10:33:43;;;;;;;;;;;21.60;49.00;;;;;;5074858;28;1019;-39
2022/04/06 10:36:19;;;;;;;;;;;21.70;48.90;;;;;;5075678;28;1902;-41
2022/04/06 10:39:08;;;;;;;;;;;21.60;48.90;;;;;;5073342;28;905;-40
2022/04/06 10:41:38;;;;;;;;;;;21.70;48.90;;;;;;5070485;28;1395;-40
2022/04/06 10:44:05;;;;;;;;;;;21.70;48.80;;;;;;5074107;28;1162;-40
2022/04/06 10:46:34;;;;;;;;;;;21.70;48.80;;;;;;5073947;28;1073;-40
2022/04/06 10:49:13;;;;;;;;;;;21.70;48.70;;;;;;5072870;28;932;-39
2022/04/06 10:51:40;;;;;;;;;;;21.70;48.80;;;;;;5072959;28;925;-40
2022/04/06 10:54:27;;;;;;;;;;;21.70;48.80;;;;;;5074340;28;1129;-39
2022/04/06 10:56:55;;;;;;;;;;;21.70;48.90;;;;;;5072768;28;984;-39
2022/04/06 10:59:22;;;;;;;;;;;21.70;48.80;;;;;;5071512;28;939;-40
2022/04/06 11:02:10;;;;;;;;;;;21.70;48.80;;;;;;5071538;28;925;-40
2022/04/06 11:04:39;;;;;;;;;;;21.70;48.80;;;;;;5072594;28;1395;-40
2022/04/06 11:07:06;;;;;;;;;;;21.70;48.90;;;;;;5073849;28;1007;-40
2022/04/06 11:12:18;;;;;;;;;;;21.60;49.00;;;;;;5073966;28;693;-40
2022/04/06 11:14:45;;;;;;;;;;;21.70;48.90;;;;;;5071607;28;1986;-40
2022/04/06 11:17:32;;;;;;;;;;;21.60;48.90;;;;;;5071560;28;1107;-40
2022/04/06 11:20:00;;;;;;;;;;;21.60;48.90;;;;;;5072845;28;1000;-40
2022/04/06 11:22:27;;;;;;;;;;;21.60;49.10;;;;;;5071562;28;917;-40
2022/04/06 11:24:55;;;;;;;;;;;21.60;49.10;;;;;;5072188;28;944;-40
2022/04/06 11:27:28;;;;;;;;;;;21.60;49.10;;;;;;5073912;28;916;-40
2022/04/06 11:29:59;;;;;;;;;;;21.70;49.10;;;;;;5075883;28;1025;-40
2022/04/06 11:32:26;;;;;;;;;;;21.60;49.00;;;;;;5074065;28;960;-40
2022/04/06 11:34:58;;;;;;;;;;;21.70;48.90;;;;;;5075508;28;1910;-40
2022/04/06 11:37:27;;;;;;;;;;;21.60;50.00;;;;;;5077071;28;853;-40
2022/04/06 11:39:57;;;;;;;;;;;21.60;48.90;;;;;;5076589;28;932;-39
2022/04/06 11:42:24;;;;;;;;;;;21.60;48.80;;;;;;5078102;28;1002;-40
2022/04/06 11:44:51;;;;;;;;;;;21.60;48.80;;;;;;5078200;28;1020;-40
2022/04/06 11:47:26;;;;;;;;;;;21.70;48.80;;;;;;5078886;28;992;-40
2022/04/06 11:49:53;;;;;;;;;;;21.60;48.70;;;;;;5079237;28;987;-41
2022/04/06 11:52:20;;;;;;;;;;;21.70;48.70;;;;;;5077633;28;1008;-39
2022/04/06 11:54:52;;;;;;;;;;;21.70;48.70;;;;;;5077247;28;1910;-45
2022/04/06 11:57:19;;;;;;;;;;;21.70;48.70;;;;;;5077170;28;949;-40
2022/04/06 11:59:52;;;;;;;;;;;21.60;48.80;;;;;;5076014;28;1015;-40
2022/04/06 12:02:19;;;;;;;;;;;21.60;48.80;;;;;;5076720;28;945;-40
2022/04/06 12:04:48;;;;;;;;;;;21.60;48.90;;;;;;5075618;28;1039;-40
2022/04/06 12:07:19;;;;;;;;;;;21.70;48.70;;;;;;5075893;28;956;-39
2022/04/06 12:09:47;;;;;;;;;;;21.70;48.70;;;;;;5075663;28;1007;-40
2022/04/06 12:12:16;;;;;;;;;;;21.70;48.60;;;;;;5075654;28;815;-41
2022/04/06 12:14:43;;;;;;;;;;;21.70;48.60;;;;;;5076206;28;945;-40
2022/04/06 12:17:10;;;;;;;;;;;21.70;48.60;;;;;;5077312;28;1974;-38
2022/04/06 12:19:36;;;;;;;;;;;21.70;48.60;;;;;;5077502;28;901;-39
2022/04/06 12:22:07;;;;;;;;;;;21.70;48.70;;;;;;5077051;28;952;-40
2022/04/06 12:24:37;;;;;;;;;;;21.70;48.70;;;;;;5075720;28;999;-40
2022/04/06 12:27:04;;;;;;;;;;;21.60;48.70;;;;;;5076099;28;1001;-38
2022/04/06 12:29:35;;;;;;;;;;;21.70;48.70;;;;;;5076570;28;999;-40
2022/04/06 12:32:02;;;;;;;;;;;21.70;48.70;;;;;;5076450;28;1005;-40
2022/04/06 12:34:33;;;;;;;;;;;21.70;48.70;;;;;;5076252;28;916;-40
2022/04/06 12:37:29;;;;;;;;;;;21.70;48.70;;;;;;5076729;28;1984;-40
2022/04/06 12:39:51;;;;;;;;;;;21.70;48.50;;;;;;5076585;28;1296;-40
2022/04/06 12:42:18;;;;;;;;;;;21.70;48.50;;;;;;5077071;28;949;-40
2022/04/06 12:44:57;;;;;;;;;;;21.70;48.50;;;;;;5075657;28;1045;-40
2022/04/06 12:47:24;;;;;;;;;;;21.80;48.50;;;;;;5076677;28;925;-40
2022/04/06 12:49:51;;;;;;;;;;;21.70;48.50;;;;;;5075843;28;972;-40
2022/04/06 12:52:18;;;;;;;;;;;21.70;48.60;;;;;;5076286;28;985;-40
2022/04/06 12:54:45;;;;;;;;;;;21.70;48.50;;;;;;5076746;28;943;-40
2022/04/06 12:57:14;;;;;;;;;;;21.80;48.60;;;;;;5076204;28;1980;-40
2022/04/06 12:59:45;;;;;;;;;;;21.80;48.60;;;;;;5076650;28;1007;-40
2022/04/06 13:02:20;;;;;;;;;;;21.80;48.60;;;;;;5075797;28;1051;-40
2022/04/06 13:04:47;;;;;;;;;;;21.70;48.60;;;;;;5074579;28;1086;-41
2022/04/06 13:07:14;;;;;;;;;;;21.70;48.70;;;;;;5073157;28;948;-39
2022/04/06 13:09:47;;;;;;;;;;;21.70;48.70;;;;;;5076174;28;1005;-41
2022/04/06 13:12:14;;;;;;;;;;;21.70;48.80;;;;;;5074952;28;873;-40
2022/04/06 13:14:41;;;;;;;;;;;21.70;48.80;;;;;;5075939;28;995;-40
2022/04/06 13:17:07;;;;;;;;;;;21.70;48.90;;;;;;5076318;28;1984;-40
2022/04/06 13:19:35;;;;;;;;;;;21.70;48.90;;;;;;5076565;28;952;-40
2022/04/06 13:22:02;;;;;;;;;;;21.70;48.90;;;;;;5076583;28;1012;-40
2022/04/06 13:24:29;;;;;;;;;;;21.70;48.80;;;;;;5076612;28;936;-40
2022/04/06 13:26:55;;;;;;;;;;;21.70;48.80;;;;;;5076429;28;983;-40
2022/04/06 13:29:22;;;;;;;;;;;21.80;48.80;;;;;;5078038;28;985;-40
2022/04/06 13:31:49;;;;;;;;;;;21.80;48.80;;;;;;5077599;28;1004;-38
2022/04/06 13:34:17;;;;;;;;;;;21.80;48.80;;;;;;5076730;28;928;-41
2022/04/06 13:36:45;;;;;;;;;;;21.70;48.70;;;;;;5075661;28;1980;-40
2022/04/06 13:39:12;;;;;;;;;;;21.70;48.90;;;;;;5076860;28;1034;-40
2022/04/06 13:41:39;;;;;;;;;;;21.70;48.80;;;;;;5077107;28;1097;-40
2022/04/06 13:44:07;;;;;;;;;;;21.80;48.80;;;;;;5076595;28;1024;-40
2022/04/06 13:46:34;;;;;;;;;;;21.70;48.70;;;;;;5076305;28;1008;-40
2022/04/06 13:49:02;;;;;;;;;;;21.70;48.80;;;;;;5076624;28;996;-41
2022/04/06 13:51:29;;;;;;;;;;;21.70;48.70;;;;;;5076717;28;1008;-40
2022/04/06 13:53:57;;;;;;;;;;;21.70;48.80;;;;;;5076662;28;889;-40
2022/04/06 13:56:23;;;;;;;;;;;21.70;48.80;;;;;;5075995;28;1913;-40
2022/04/06 13:58:50;;;;;;;;;;;21.70;48.80;;;;;;5076403;28;901;-40
2022/04/06 14:01:17;;;;;;;;;;;21.60;48.90;;;;;;5075730;28;1020;-40
2022/04/06 14:03:43;;;;;;;;;;;21.70;48.90;;;;;;5076007;28;945;-40
2022/04/06 14:06:11;;;;;;;;;;;21.70;48.90;;;;;;5076109;28;1055;-40
2022/04/06 14:08:37;;;;;;;;;;;21.70;48.90;;;;;;5075952;28;1024;-39
2022/04/06 14:11:06;;;;;;;;;;;21.60;48.70;;;;;;5077189;28;1007;-40
2022/04/06 14:13:33;;;;;;;;;;;21.70;48.70;;;;;;5074792;28;1020;-40
2022/04/06 14:16:00;;;;;;;;;;;21.70;48.70;;;;;;5074929;28;1905;-41
2022/04/06 14:18:27;;;;;;;;;;;21.70;48.80;;;;;;5074590;28;1039;-39
2022/04/06 14:20:54;;;;;;;;;;;21.70;48.90;;;;;;5075422;28;1083;-41
2022/04/06 14:23:20;;;;;;;;;;;21.70;48.80;;;;;;5073213;28;1021;-39
2022/04/06 14:25:47;;;;;;;;;;;21.70;48.70;;;;;;5073418;28;978;-40
2022/04/06 14:28:15;;;;;;;;;;;21.70;48.70;;;;;;5074324;28;917;-40
2022/04/06 14:30:48;;;;;;;;;;;21.70;48.70;;;;;;5073442;28;968;-40
2022/04/06 14:33:15;;;;;;;;;;;21.70;48.80;;;;;;5076316;28;1451;-38
2022/04/06 14:35:42;;;;;;;;;;;21.70;48.70;;;;;;5075668;28;1906;-41
2022/04/06 14:38:10;;;;;;;;;;;21.80;48.30;;;;;;5076208;28;1008;-40
2022/04/06 14:40:37;;;;;;;;;;;21.90;48.00;;;;;;5075564;28;999;-40
2022/04/06 14:43:04;;;;;;;;;;;22.00;48.10;;;;;;5074972;28;1171;-40
2022/04/06 14:45:32;;;;;;;;;;;21.90;48.20;;;;;;5075653;28;1016;-40
2022/04/06 14:47:59;;;;;;;;;;;21.90;48.40;;;;;;5076870;28;935;-40
2022/04/06 14:50:26;;;;;;;;;;;21.90;48.40;;;;;;5078652;28;1024;-43
2022/04/06 14:52:52;;;;;;;;;;;22.00;48.50;;;;;;5074522;28;1023;-44